Main page
METAR-TAF:

METAR-TAF

Airports :

Beech River Regional Airport

Parsons, Tennessee, United States

latitude: 35-39-23N, longitude: 088-11-43W, elevation: 489 ft

Current weather observation

The report was made 20 minutes ago, at 03:35 UTC
Calm wind
Temperature 45°F
Humidity 93%
Pressure 30.12 in. Hg
Visibility: 10 miles
Clear sky

METAR: KPVE 230335Z AUTO 00000KT 10SM CLR 07/06 A3012 RMK A01

Time: 22:55 (03:55 UTC)


TAF: missing

Weather observations and forecasts of more than 4000 airports (METAR and TAF reports).

The available stations are represented by yellow and red dots on the map.

Hover mouse over dot to see the name of the station.

Then click to see weather observations and forecasts.

To change the map : click on the green buttons with a black cross to zoom in, on the green button with a dash to zoom out, or on the green arrows for adjacent maps.


METAR-TAF: